Time;durP1;ratioP1;P1;durP2;ratioP2;P2;SDS_P1;SDS_P2;PMS_P1;PMS_P2;Temp;Humidity;BMP_temperature;BMP_pressure;BME280_temperature;BME280_humidity;BME280_pressure;Samples;Min_cycle;Max_cycle;Signal;HPM_P1;HPM_P2
2023/04/27 00:00:56;;;;;;;6.87;3.47;;;;;;;;;;6306501;28;20245;-61
2023/04/27 00:03:57;;;;;;;5.57;3.30;;;;;;;;;;6300657;28;20278;-61
2023/04/27 00:06:58;;;;;;;4.13;3.17;;;;;;;;;;6310300;28;20192;-61
2023/04/27 00:09:59;;;;;;;3.50;3.20;;;;;;;;;;6283702;28;20201;-61
2023/04/27 00:13:00;;;;;;;5.07;3.20;;;;;;;;;;6294147;28;20193;-61
2023/04/27 00:16:02;;;;;;;4.03;3.53;;;;;;;;;;6317006;28;20220;-61
2023/04/27 00:19:03;;;;;;;7.93;4.40;;;;;;;;;;6302051;28;20190;-61
2023/04/27 00:22:05;;;;;;;6.30;3.30;;;;;;;;;;6300992;28;20192;-61
2023/04/27 00:25:06;;;;;;;3.80;3.23;;;;;;;;;;6301377;28;20239;-61
2023/04/27 00:28:07;;;;;;;6.70;3.47;;;;;;;;;;6308911;28;20263;-61
2023/04/27 00:31:08;;;;;;;5.30;3.07;;;;;;;;;;6298109;28;20204;-60
2023/04/27 00:34:09;;;;;;;4.97;3.50;;;;;;;;;;6310847;28;20212;-60
2023/04/27 00:37:10;;;;;;;3.90;3.50;;;;;;;;;;6316036;28;20215;-60
2023/04/27 00:40:12;;;;;;;5.03;3.53;;;;;;;;;;6282309;28;20251;-60
2023/04/27 00:43:13;;;;;;;6.17;3.30;;;;;;;;;;6291517;28;20204;-60
2023/04/27 00:46:14;;;;;;;4.07;3.47;;;;;;;;;;6284922;28;20197;-60
2023/04/27 00:49:16;;;;;;;7.10;3.80;;;;;;;;;;6317848;28;20197;-60
2023/04/27 00:52:17;;;;;;;7.23;3.40;;;;;;;;;;6303898;28;20200;-60
2023/04/27 00:55:18;;;;;;;4.23;3.23;;;;;;;;;;6301971;28;20287;-60
2023/04/27 00:58:19;;;;;;;5.30;3.87;;;;;;;;;;6277841;28;20220;-60
2023/04/27 01:01:20;;;;;;;3.90;3.17;;;;;;;;;;6283360;28;20196;-60
2023/04/27 01:04:22;;;;;;;4.87;3.60;;;;;;;;;;6275758;28;20193;-60
2023/04/27 01:07:26;;;;;;;4.70;3.63;;;;;;;;;;6301549;28;20203;-60
2023/04/27 01:10:27;;;;;;;3.67;3.30;;;;;;;;;;6292452;28;20243;-60
2023/04/27 01:13:28;;;;;;;7.40;3.70;;;;;;;;;;6322993;28;20200;-60
2023/04/27 01:16:30;;;;;;;5.87;3.80;;;;;;;;;;6292360;28;20221;-60
2023/04/27 01:19:31;;;;;;;6.10;3.53;;;;;;;;;;6301554;28;20212;-60
2023/04/27 01:22:32;;;;;;;6.10;3.30;;;;;;;;;;6286749;28;20192;-60
2023/04/27 01:25:33;;;;;;;4.03;3.40;;;;;;;;;;6321129;28;20188;-60
2023/04/27 01:28:34;;;;;;;6.60;3.73;;;;;;;;;;6277876;28;20189;-60
2023/04/27 01:31:36;;;;;;;4.03;3.47;;;;;;;;;;6280302;28;20197;-60
2023/04/27 01:34:37;;;;;;;5.73;3.63;;;;;;;;;;6295852;28;20247;-60
2023/04/27 01:37:38;;;;;;;5.13;3.67;;;;;;;;;;6303564;28;20216;-60
2023/04/27 01:40:39;;;;;;;4.03;3.37;;;;;;;;;;6302153;28;20200;-60
2023/04/27 01:43:42;;;;;;;4.47;3.97;;;;;;;;;;6303914;28;20216;-61
2023/04/27 01:46:43;;;;;;;5.47;3.80;;;;;;;;;;6294675;28;20285;-61
2023/04/27 01:49:44;;;;;;;5.50;3.70;;;;;;;;;;6285037;28;20196;-61
2023/04/27 01:52:45;;;;;;;4.27;3.87;;;;;;;;;;6286922;28;20232;-61
2023/04/27 01:55:46;;;;;;;4.93;4.13;;;;;;;;;;6311339;28;20260;-61
2023/04/27 01:58:47;;;;;;;5.13;4.40;;;;;;;;;;6283530;28;20185;-61
2023/04/27 02:01:48;;;;;;;6.73;4.27;;;;;;;;;;6277571;28;20263;-61
2023/04/27 02:04:49;;;;;;;4.00;3.60;;;;;;;;;;6312278;28;20184;-61
2023/04/27 02:07:50;;;;;;;5.10;3.67;;;;;;;;;;6312445;28;20200;-60
2023/04/27 02:10:51;;;;;;;7.93;4.47;;;;;;;;;;6302224;28;20204;-60
2023/04/27 02:13:52;;;;;;;4.53;3.60;;;;;;;;;;6297870;28;20199;-60
2023/04/27 02:16:53;;;;;;;5.07;3.80;;;;;;;;;;6287909;28;20239;-60
2023/04/27 02:19:54;;;;;;;5.00;4.40;;;;;;;;;;6304324;28;20219;-60
2023/04/27 02:22:55;;;;;;;4.70;3.73;;;;;;;;;;6294694;28;20188;-60
2023/04/27 02:25:56;;;;;;;6.10;4.23;;;;;;;;;;6282724;28;20204;-60
2023/04/27 02:28:58;;;;;;;5.50;3.53;;;;;;;;;;6290535;28;20235;-60
2023/04/27 02:31:59;;;;;;;4.40;3.73;;;;;;;;;;6311833;28;20181;-60
2023/04/27 02:35:00;;;;;;;4.03;3.60;;;;;;;;;;6295229;28;20390;-60
2023/04/27 02:38:01;;;;;;;6.13;3.73;;;;;;;;;;6311842;28;20216;-60
2023/04/27 02:41:03;;;;;;;4.03;3.20;;;;;;;;;;6276674;28;20217;-60
2023/04/27 02:44:04;;;;;;;3.83;3.40;;;;;;;;;;6298280;28;20210;-60
2023/04/27 02:47:05;;;;;;;7.67;4.40;;;;;;;;;;6282355;28;20193;-60
2023/04/27 02:50:06;;;;;;;4.07;3.37;;;;;;;;;;6304240;28;20196;-60
2023/04/27 02:53:08;;;;;;;4.47;3.97;;;;;;;;;;6303519;28;20189;-60
2023/04/27 02:56:09;;;;;;;6.10;3.63;;;;;;;;;;6307014;28;20218;-60
2023/04/27 02:59:10;;;;;;;4.53;3.27;;;;;;;;;;6307021;28;20184;-60
2023/04/27 03:02:11;;;;;;;5.13;3.50;;;;;;;;;;6279232;28;20204;-60
2023/04/27 03:05:12;;;;;;;4.83;3.93;;;;;;;;;;6306520;28;20220;-60
2023/04/27 03:08:13;;;;;;;3.83;3.43;;;;;;;;;;6302007;28;20223;-60
2023/04/27 03:11:14;;;;;;;4.87;3.80;;;;;;;;;;6281541;28;20208;-61
2023/04/27 03:14:16;;;;;;;4.80;3.60;;;;;;;;;;6293587;28;20189;-61
2023/04/27 03:17:17;;;;;;;4.37;3.47;;;;;;;;;;6302164;28;20222;-61
2023/04/27 03:20:18;;;;;;;4.27;3.33;;;;;;;;;;6300072;28;20189;-61
2023/04/27 03:23:19;;;;;;;7.90;3.77;;;;;;;;;;6301230;28;20189;-61
2023/04/27 03:26:20;;;;;;;3.67;3.30;;;;;;;;;;6314731;28;20203;-61
2023/04/27 03:29:21;;;;;;;5.37;3.80;;;;;;;;;;6320387;28;20201;-61
2023/04/27 03:32:22;;;;;;;4.87;3.57;;;;;;;;;;6305018;28;20203;-61
2023/04/27 03:35:23;;;;;;;3.87;3.47;;;;;;;;;;6302730;28;20244;-60
2023/04/27 03:38:25;;;;;;;5.33;3.80;;;;;;;;;;6307629;28;20200;-60
2023/04/27 03:41:26;;;;;;;5.87;3.87;;;;;;;;;;6295889;28;20196;-60
2023/04/27 03:44:27;;;;;;;6.23;3.37;;;;;;;;;;6283908;28;20189;-60
2023/04/27 03:47:28;;;;;;;5.70;3.83;;;;;;;;;;6288841;28;20203;-61
2023/04/27 03:50:29;;;;;;;5.40;3.40;;;;;;;;;;6305269;28;20221;-60
2023/04/27 03:53:30;;;;;;;6.50;3.20;;;;;;;;;;6294842;28;20200;-59
2023/04/27 03:56:31;;;;;;;5.40;3.80;;;;;;;;;;6288705;28;20272;-59
2023/04/27 03:59:32;;;;;;;4.70;2.77;;;;;;;;;;6305847;28;20193;-59
2023/04/27 04:02:33;;;;;;;5.57;3.40;;;;;;;;;;6309340;28;20202;-59
2023/04/27 04:05:34;;;;;;;8.93;4.27;;;;;;;;;;6296864;28;20190;-59
2023/04/27 04:08:36;;;;;;;8.30;4.73;;;;;;;;;;6317343;28;20181;-59
2023/04/27 04:11:37;;;;;;;5.90;4.53;;;;;;;;;;6303290;28;20284;-59
2023/04/27 04:14:38;;;;;;;5.73;4.37;;;;;;;;;;6303528;28;20185;-59
2023/04/27 04:17:39;;;;;;;6.30;5.20;;;;;;;;;;6309199;28;20220;-61
2023/04/27 04:20:40;;;;;;;9.77;4.97;;;;;;;;;;6295805;28;20197;-60
2023/04/27 04:23:41;;;;;;;5.93;4.47;;;;;;;;;;6308160;28;20280;-59
2023/04/27 04:26:42;;;;;;;6.93;4.67;;;;;;;;;;6311371;28;20207;-58
2023/04/27 04:29:43;;;;;;;4.33;3.43;;;;;;;;;;6291729;28;20265;-59
2023/04/27 04:32:44;;;;;;;4.47;3.43;;;;;;;;;;6297485;28;20201;-60
2023/04/27 04:35:45;;;;;;;8.23;3.97;;;;;;;;;;6288371;28;20241;-59
2023/04/27 04:38:46;;;;;;;6.00;3.50;;;;;;;;;;6316262;28;20213;-59
2023/04/27 04:41:48;;;;;;;8.07;4.67;;;;;;;;;;6310836;28;20345;-59
2023/04/27 04:44:50;;;;;;;4.23;3.23;;;;;;;;;;6305167;28;20181;-59
2023/04/27 04:47:53;;;;;;;4.30;3.67;;;;;;;;;;6298710;28;20201;-58
2023/04/27 04:50:54;;;;;;;5.27;3.70;;;;;;;;;;6310410;28;20198;-61
2023/04/27 04:53:55;;;;;;;4.27;3.87;;;;;;;;;;6310293;28;20194;-61
2023/04/27 04:56:59;;;;;;;4.57;3.60;;;;;;;;;;6312119;28;20217;-61
2023/04/27 05:00:01;;;;;;;5.57;3.87;;;;;;;;;;6311801;28;20287;-61
2023/04/27 05:03:02;;;;;;;5.07;4.07;;;;;;;;;;6282015;28;20197;-61
2023/04/27 05:06:03;;;;;;;6.33;3.77;;;;;;;;;;6310674;28;20204;-62
2023/04/27 05:09:05;;;;;;;5.17;3.57;;;;;;;;;;6292931;28;20246;-61
2023/04/27 05:12:07;;;;;;;6.93;3.60;;;;;;;;;;6297296;28;20201;-60
2023/04/27 05:15:08;;;;;;;5.20;4.00;;;;;;;;;;6307148;28;20230;-59
2023/04/27 05:18:09;;;;;;;7.10;3.93;;;;;;;;;;6321173;28;20257;-59
2023/04/27 05:21:14;;;;;;;4.00;3.20;;;;;;;;;;6293082;28;20185;-59
2023/04/27 05:24:15;;;;;;;4.03;3.17;;;;;;;;;;6285987;28;20262;-59
2023/04/27 05:27:16;;;;;;;4.23;3.83;;;;;;;;;;6296637;28;20192;-59
2023/04/27 05:30:17;;;;;;;5.43;3.27;;;;;;;;;;6299255;28;20199;-59
2023/04/27 05:33:18;;;;;;;6.43;3.80;;;;;;;;;;6299581;28;20189;-59
2023/04/27 05:36:19;;;;;;;7.07;3.37;;;;;;;;;;6286668;28;20320;-59
2023/04/27 05:39:20;;;;;;;6.60;3.33;;;;;;;;;;6293681;28;20239;-59
2023/04/27 05:42:21;;;;;;;5.97;3.53;;;;;;;;;;6301961;28;20197;-59
2023/04/27 05:45:22;;;;;;;3.87;3.10;;;;;;;;;;6287693;28;20208;-59
2023/04/27 05:48:23;;;;;;;4.03;3.40;;;;;;;;;;6285258;28;20283;-59
2023/04/27 05:51:24;;;;;;;4.73;3.53;;;;;;;;;;6300587;28;20189;-59
2023/04/27 05:54:26;;;;;;;6.87;3.40;;;;;;;;;;6301828;28;20251;-59
2023/04/27 05:57:27;;;;;;;6.10;3.40;;;;;;;;;;6315150;28;20216;-59
2023/04/27 06:00:28;;;;;;;5.23;3.53;;;;;;;;;;6281538;28;20185;-59
2023/04/27 06:03:30;;;;;;;4.77;3.33;;;;;;;;;;6298206;28;20185;-59
2023/04/27 06:06:32;;;;;;;3.47;3.10;;;;;;;;;;6283472;28;20197;-59
2023/04/27 06:09:33;;;;;;;2.90;2.70;;;;;;;;;;6305456;28;20331;-59
2023/04/27 06:12:34;;;;;;;4.37;3.23;;;;;;;;;;6301234;28;20193;-59
2023/04/27 06:15:35;;;;;;;3.87;3.03;;;;;;;;;;6302754;28;20192;-59
2023/04/27 06:18:35;;;;;;;9.27;4.30;;;7.50;67.10;;;;;;6280713;28;20212;-59
2023/04/27 06:21:36;;;;;;;4.07;3.67;;;7.70;66.80;;;;;;6285420;28;20297;-59
2023/04/27 06:24:37;;;;;;;4.47;3.93;;;7.80;67.20;;;;;;6260036;28;20199;-59
2023/04/27 06:27:38;;;;;;;3.60;3.30;;;;;;;;;;6257665;28;20246;-59
2023/04/27 06:30:39;;;;;;;7.97;3.97;;;7.90;65.50;;;;;;6314185;28;20200;-59
2023/04/27 06:33:40;;;;;;;3.77;3.17;;;8.00;64.90;;;;;;6279791;28;20224;-59
2023/04/27 06:36:40;;;;;;;4.73;3.63;;;8.10;63.40;;;;;;6276730;28;20237;-59
2023/04/27 06:39:42;;;;;;;5.13;3.63;;;8.20;64.00;;;;;;6285474;28;20223;-59
2023/04/27 06:42:43;;;;;;;6.00;3.57;;;;;;;;;;6261375;28;20201;-59
2023/04/27 06:45:44;;;;;;;3.67;3.23;;;;;;;;;;6288448;28;20242;-59
2023/04/27 06:48:46;;;;;;;4.80;3.60;;;;;;;;;;6276868;28;20269;-59
2023/04/27 06:51:47;;;;;;;4.73;3.63;;;;;;;;;;6303950;28;20243;-59
2023/04/27 06:54:48;;;;;;;5.27;3.53;;;;;;;;;;6279719;28;20181;-59
2023/04/27 06:57:50;;;;;;;6.73;3.63;;;;;;;;;;6283028;28;20219;-59
2023/04/27 07:00:51;;;;;;;5.33;3.33;;;;;;;;;;6282686;28;20216;-59
2023/04/27 07:03:52;;;;;;;4.67;3.17;;;;;;;;;;6287365;28;20192;-59
2023/04/27 07:06:52;;;;;;;4.90;3.57;;;8.50;61.50;;;;;;6297842;28;20262;-59
2023/04/27 07:09:53;;;;;;;7.00;3.23;;;8.60;59.30;;;;;;6301616;28;20193;-59
2023/04/27 07:12:54;;;;;;;4.47;3.63;;;8.80;59.50;;;;;;6287111;28;20201;-59
2023/04/27 07:15:59;;;;;;;6.77;3.70;;;;;;;;;;6279476;28;20202;-59
2023/04/27 07:19:00;;;;;;;4.40;3.83;;;;;;;;;;6298946;28;20256;-59
2023/04/27 07:22:02;;;;;;;6.67;3.60;;;;;;;;;;6285521;28;20276;-59
2023/04/27 07:25:04;;;;;;;4.77;3.07;;;;;;;;;;6296839;28;20289;-59
2023/04/27 07:28:05;;;;;;;4.43;3.30;;;8.90;56.50;;;;;;6283660;28;20206;-59
2023/04/27 07:31:06;;;;;;;6.07;3.07;;;8.90;55.80;;;;;;6280029;28;20205;-59
2023/04/27 07:34:07;;;;;;;6.53;3.77;;;8.80;56.70;;;;;;6294360;28;20197;-59
2023/04/27 07:37:08;;;;;;;5.93;3.50;;;8.70;57.10;;;;;;6281119;28;20235;-59
2023/04/27 07:40:15;;;;;;;4.83;3.67;;;8.70;57.70;;;;;;6278177;28;20197;-59
2023/04/27 07:43:16;;;;;;;5.00;3.33;;;8.60;57.60;;;;;;6283165;28;20182;-59
2023/04/27 07:46:17;;;;;;;5.93;3.43;;;8.60;57.10;;;;;;6303353;28;20189;-59
2023/04/27 07:49:18;;;;;;;4.90;3.07;;;8.60;57.50;;;;;;6290125;28;20189;-59
2023/04/27 07:52:19;;;;;;;6.13;3.53;;;8.70;56.70;;;;;;6271034;28;20193;-59
2023/04/27 07:55:21;;;;;;;4.23;3.37;;;8.80;55.30;;;;;;6265210;28;20200;-59
2023/04/27 07:58:21;;;;;;;4.33;2.90;;;8.80;56.30;;;;;;6271113;28;20241;-59
2023/04/27 08:01:22;;;;;;;3.43;3.03;;;8.80;56.30;;;;;;6270837;28;20199;-59
2023/04/27 08:04:23;;;;;;;6.40;3.67;;;8.90;57.10;;;;;;6286896;28;20185;-59
2023/04/27 08:07:23;;;;;;;6.20;3.70;;;9.00;54.70;;;;;;6290489;28;20207;-59
2023/04/27 08:10:24;;;;;;;6.03;3.90;;;9.00;55.00;;;;;;6283026;28;20196;-59
2023/04/27 08:13:25;;;;;;;4.90;3.37;;;9.10;54.30;;;;;;6278539;28;20192;-59
2023/04/27 08:16:26;;;;;;;6.50;3.63;;;9.20;53.10;;;;;;6266292;28;20217;-59
2023/04/27 08:19:27;;;;;;;7.80;4.23;;;9.20;54.30;;;;;;6270765;28;20178;-59
2023/04/27 08:22:27;;;;;;;7.90;3.87;;;9.40;53.00;;;;;;6290014;28;20181;-59
2023/04/27 08:25:28;;;;;;;3.80;3.40;;;9.40;51.00;;;;;;6284593;28;20246;-59
2023/04/27 08:28:29;;;;;;;7.37;4.00;;;9.60;51.60;;;;;;6294630;28;20196;-59
2023/04/27 08:31:30;;;;;;;6.93;4.17;;;9.60;52.20;;;;;;6280131;28;20201;-59
2023/04/27 08:34:31;;;;;;;3.90;3.47;;;9.60;51.10;;;;;;6279881;28;20220;-59
2023/04/27 08:37:31;;;;;;;5.40;3.17;;;9.70;51.20;;;;;;6279589;28;20216;-59
2023/04/27 08:40:32;;;;;;;4.83;3.23;;;;;;;;;;6293926;28;20233;-59
2023/04/27 08:43:36;;;;;;;10.63;4.20;;;;;;;;;;6281756;28;20200;-59
2023/04/27 08:46:38;;;;;;;6.27;4.00;;;;;;;;;;6304369;28;20193;-59
2023/04/27 08:49:42;;;;;;;4.77;4.07;;;;;;;;;;6310205;28;20197;-59
2023/04/27 08:52:44;;;;;;;4.80;3.20;;;;;;;;;;6294104;28;20193;-59
2023/04/27 08:55:45;;;;;;;6.73;3.80;;;;;;;;;;6296069;28;20298;-59
2023/04/27 08:58:46;;;;;;;4.53;4.00;;;;;;;;;;6316696;28;20191;-59
2023/04/27 09:01:47;;;;;;;6.63;3.70;;;;;;;;;;6291515;28;20241;-59
2023/04/27 09:04:50;;;;;;;5.83;4.17;;;;;;;;;;6332235;28;20184;-59
2023/04/27 09:08:04;;;;;;;7.40;4.37;;;;;;;;;;6294759;28;20209;-59
2023/04/27 09:11:05;;;;;;;5.40;3.90;;;;;;;;;;6310036;28;20251;-59
2023/04/27 09:14:16;;;;;;;7.73;3.60;;;;;;;;;;6282389;28;20196;-59
2023/04/27 09:17:25;;;;;;;4.10;3.70;;;10.30;50.80;;;;;;6291934;28;20288;-59
2023/04/27 09:20:26;;;;;;;3.90;3.50;;;11.50;49.80;;;;;;6310421;28;20212;-59
2023/04/27 09:23:37;;;;;;;5.57;3.90;;;11.60;47.70;;;;;;6263671;28;20194;-59
2023/04/27 09:26:39;;;;;;;9.97;4.00;;;;;;;;;;6282143;28;20182;-59
2023/04/27 09:29:40;;;;;;;7.47;4.30;;;;;;;;;;6307215;28;20276;-59
2023/04/27 09:32:48;;;;;;;6.50;4.13;;;;;;;;;;6323911;28;20215;-59
2023/04/27 09:35:49;;;;;;;8.13;4.30;;;;;;;;;;6279349;28;20245;-59
2023/04/27 09:38:51;;;;;;;7.20;4.10;;;;;;;;;;6299581;28;20288;-59
2023/04/27 09:41:54;;;;;;;6.27;3.87;;;;;;;;;;6315399;28;20205;-59
2023/04/27 09:44:55;;;;;;;5.80;3.20;;;;;;;;;;6298383;28;20197;-59
2023/04/27 09:47:57;;;;;;;4.80;3.43;;;;;;;;;;6296830;28;20224;-59
2023/04/27 09:50:58;;;;;;;4.43;3.47;;;;;;;;;;6288161;28;20189;-59
2023/04/27 09:54:00;;;;;;;4.20;3.30;;;;;;;;;;6291862;28;20193;-59
2023/04/27 09:57:06;;;;;;;4.60;3.10;;;;;;;;;;6312878;28;20213;-59
2023/04/27 10:00:09;;;;;;;4.53;3.53;;;;;;;;;;6315635;28;20189;-59
2023/04/27 10:03:22;;;;;;;6.13;3.40;;;;;;;;;;6314980;28;20259;-59
2023/04/27 10:06:27;;;;;;;5.60;4.13;;;;;;;;;;6299933;28;20196;-59
2023/04/27 10:09:34;;;;;;;5.47;3.80;;;;;;;;;;6302121;28;20215;-59
2023/04/27 10:12:35;;;;;;;6.17;3.40;;;;;;;;;;6300441;28;20189;-59
2023/04/27 10:15:39;;;;;;;6.07;3.97;;;;;;;;;;6290910;28;20220;-59
2023/04/27 10:18:50;;;;;;;4.57;3.10;;;;;;;;;;6314609;28;20209;-59
2023/04/27 10:21:55;;;;;;;6.00;3.40;;;;;;;;;;6302757;28;20195;-59
2023/04/27 10:24:56;;;;;;;5.57;3.47;;;;;;;;;;6295558;28;20190;-59
2023/04/27 10:27:59;;;;;;;3.97;3.37;;;;;;;;;;6303375;28;20209;-59
2023/04/27 10:31:09;;;;;;;5.07;4.07;;;;;;;;;;6301908;28;20192;-60
2023/04/27 10:34:11;;;;;;;4.57;4.00;;;;;;;;;;6297529;28;20280;-60
2023/04/27 10:37:13;;;;;;;3.83;3.53;;;;;;;;;;6305121;28;20359;-60
2023/04/27 10:40:16;;;;;;;4.40;3.67;;;;;;;;;;6287008;28;20189;-60
2023/04/27 10:43:17;;;;;;;4.37;3.90;;;;;;;;;;6317195;28;20217;-60
2023/04/27 10:46:18;;;;;;;5.33;4.00;;;;;;;;;;6295225;28;20194;-61
2023/04/27 10:49:19;;;;;;;4.87;3.50;;;;;;;;;;6288801;28;20194;-61
2023/04/27 10:52:20;;;;;;;6.57;3.50;;;;;;;;;;6316390;28;20220;-61
2023/04/27 10:55:23;;;;;;;7.80;3.80;;;14.50;43.00;;;;;;6308639;28;20225;-61
2023/04/27 10:58:24;;;;;;;5.00;4.03;;;15.30;42.20;;;;;;6304663;28;20273;-61
2023/04/27 11:01:26;;;;;;;4.63;3.90;;;15.60;43.10;;;;;;6325349;28;20185;-61
2023/04/27 11:04:37;;;;;;;5.80;3.97;;;15.80;39.80;;;;;;6279413;28;20288;-60
2023/04/27 11:07:38;;;;;;;4.30;3.17;;;;;;;;;;6272698;28;20216;-61
2023/04/27 11:10:42;;;;;;;5.77;3.90;;;;;;;;;;6296076;28;20189;-61
2023/04/27 11:13:43;;;;;;;4.93;3.67;;;;;;;;;;6304491;28;20224;-62
2023/04/27 11:16:48;;;;;;;4.83;3.60;;;;;;;;;;6276656;28;20214;-62
2023/04/27 11:19:49;;;;;;;4.60;3.77;;;;;;;;;;6304605;28;20185;-62
2023/04/27 11:22:50;;;;;;;5.37;3.53;;;;;;;;;;6301074;28;20220;-62
2023/04/27 11:25:52;;;;;;;9.47;4.17;;;;;;;;;;6279869;28;20197;-62
2023/04/27 11:28:57;;;;;;;6.83;3.83;;;;;;;;;;6318921;28;20224;-62
2023/04/27 11:31:59;;;;;;;4.70;3.47;;;;;;;;;;6310803;28;20194;-62
2023/04/27 11:35:00;;;;;;;4.37;3.30;;;;;;;;;;6281144;28;20268;-62
2023/04/27 11:38:01;;;;;;;3.93;3.20;;;;;;;;;;6288770;28;20235;-62
2023/04/27 11:41:04;;;;;;;4.07;3.37;;;;;;;;;;6313128;28;20189;-62
2023/04/27 11:44:08;;;;;;;6.07;3.70;;;;;;;;;;6308848;28;20196;-62
2023/04/27 11:47:15;;;;;;;3.60;3.30;;;;;;;;;;6281340;28;20197;-62
2023/04/27 11:50:16;;;;;;;6.13;3.97;;;;;;;;;;6319322;28;20201;-62
2023/04/27 11:53:17;;;;;;;5.53;4.23;;;;;;;;;;6319737;28;20197;-62
2023/04/27 11:56:18;;;;;;;7.33;4.07;;;16.00;40.20;;;;;;6305231;28;20216;-61
2023/04/27 11:59:20;;;;;;;6.03;3.90;;;;;;;;;;6263457;28;20193;-61
2023/04/27 12:02:21;;;;;;;6.13;3.97;;;;;;;;;;6276278;28;20190;-61
2023/04/27 12:05:22;;;;;;;5.50;3.90;;;;;;;;;;6308904;28;20268;-61
2023/04/27 12:08:23;;;;;;;6.30;3.77;;;15.40;45.40;;;;;;6296947;28;20201;-61
2023/04/27 12:11:26;;;;;;;4.13;3.57;;;15.20;43.20;;;;;;6297224;28;20193;-61
2023/04/27 12:14:27;;;;;;;6.33;3.33;;;15.20;42.90;;;;;;6288931;28;20197;-61
2023/04/27 12:17:28;;;;;;;4.23;3.30;;;;;;;;;;6283510;28;20282;-61
2023/04/27 12:20:29;;;;;;;5.30;3.83;;;;;;;;;;6293418;28;20284;-61
2023/04/27 12:23:31;;;;;;;6.83;4.03;;;;;;;;;;6324395;28;20284;-62
2023/04/27 12:26:32;;;;;;;4.27;3.43;;;;;;;;;;6295107;28;20204;-61
2023/04/27 12:29:33;;;;;;;5.60;3.53;;;;;;;;;;6319821;28;20201;-61
2023/04/27 12:32:34;;;;;;;6.53;3.77;;;;;;;;;;6295292;28;20220;-61
2023/04/27 12:35:35;;;;;;;5.70;3.83;;;;;;;;;;6300202;28;20327;-61
2023/04/27 12:38:36;;;;;;;6.77;3.80;;;;;;;;;;6289666;28;20225;-63
2023/04/27 12:41:37;;;;;;;4.80;3.30;;;;;;;;;;6330256;28;20189;-64
2023/04/27 12:44:38;;;;;;;5.80;3.83;;;;;;;;;;6327852;28;20192;-62
2023/04/27 12:47:41;;;;;;;3.60;3.27;;;;;;;;;;6294107;28;20197;-63
2023/04/27 12:50:42;;;;;;;6.40;3.90;;;;;;;;;;6283535;28;20197;-64
2023/04/27 12:53:43;;;;;;;5.93;3.80;;;;;;;;;;6280715;28;20200;-65
2023/04/27 12:56:44;;;;;;;5.10;3.10;;;;;;;;;;6284963;28;20218;-64
2023/04/27 12:59:45;;;;;;;5.67;3.13;;;;;;;;;;6296131;28;20216;-64
2023/04/27 13:02:46;;;;;;;8.23;3.30;;;;;;;;;;6281831;28;20192;-64
2023/04/27 13:05:47;;;;;;;7.03;3.50;;;;;;;;;;6301085;28;20185;-64
2023/04/27 13:08:49;;;;;;;6.53;2.93;;;;;;;;;;6305665;28;20234;-64
2023/04/27 13:11:51;;;;;;;5.13;3.33;;;;;;;;;;6314342;28;20189;-62
2023/04/27 13:14:53;;;;;;;3.93;3.07;;;;;;;;;;6316148;28;20185;-62
2023/04/27 13:17:55;;;;;;;6.90;3.83;;;;;;;;;;6290358;28;20300;-62
2023/04/27 13:20:56;;;;;;;6.17;3.33;;;;;;;;;;6302491;28;20196;-62
2023/04/27 13:23:58;;;;;;;4.63;3.90;;;;;;;;;;6293077;28;20242;-62
2023/04/27 13:26:59;;;;;;;4.63;3.20;;;;;;;;;;6302909;28;20185;-62
2023/04/27 13:30:00;;;;;;;5.13;3.60;;;;;;;;;;6299157;28;20337;-62
2023/04/27 13:33:01;;;;;;;7.67;3.47;;;;;;;;;;6320998;28;20209;-62
2023/04/27 13:36:02;;;;;;;4.90;2.93;;;;;;;;;;6297351;28;20325;-62
2023/04/27 13:39:05;;;;;;;4.70;3.13;;;17.60;39.20;;;;;;6297917;28;20249;-62
2023/04/27 13:42:06;;;;;;;4.47;3.00;;;18.00;39.40;;;;;;6275119;28;20208;-62
2023/04/27 13:45:07;;;;;;;5.87;3.30;;;17.70;39.10;;;;;;6292714;28;20200;-62
2023/04/27 13:48:07;;;;;;;4.53;3.27;;;18.00;39.90;;;;;;6297465;28;20188;-62
2023/04/27 13:51:09;;;;;;;4.40;2.83;;;18.90;37.60;;;;;;6287934;28;20211;-62
2023/04/27 13:54:09;;;;;;;7.50;3.20;;;20.30;35.60;;;;;;6306783;28;20255;-63
2023/04/27 13:57:10;;;;;;;3.53;3.03;;;21.70;34.60;;;;;;6277916;28;20209;-63
2023/04/27 14:00:11;;;;;;;4.90;3.00;;;;;;;;;;6293246;28;20230;-63
2023/04/27 14:03:16;;;;;;;4.13;3.10;;;22.80;33.60;;;;;;6291024;28;20196;-63
2023/04/27 14:06:16;;;;;;;4.97;3.27;;;25.00;30.40;;;;;;6292418;28;20201;-63
2023/04/27 14:09:17;;;;;;;4.03;3.10;;;26.50;28.40;;;;;;6287093;28;20199;-61
2023/04/27 14:12:19;;;;;;;3.73;2.63;;;27.80;26.30;;;;;;6273092;28;20196;-61
2023/04/27 14:15:19;;;;;;;4.85;2.90;;;28.70;27.20;;;;;;6285402;28;20204;-59
2023/04/27 14:18:20;;;;;;;5.47;2.90;;;30.00;25.70;;;;;;6273127;28;20243;-59
2023/04/27 14:21:21;;;;;;;4.67;3.40;;;28.70;25.80;;;;;;6258509;28;20193;-59
2023/04/27 14:24:22;;;;;;;4.20;2.97;;;27.90;27.20;;;;;;6291644;28;20230;-58
2023/04/27 14:27:23;;;;;;;5.67;3.20;;;27.90;27.50;;;;;;6283520;28;20189;-58
2023/04/27 14:30:23;;;;;;;7.57;3.27;;;26.70;29.30;;;;;;6283431;28;20276;-58
2023/04/27 14:33:24;;;;;;;4.47;2.57;;;25.00;31.00;;;;;;6288559;28;20200;-57
2023/04/27 14:36:26;;;;;;;4.20;3.17;;;23.60;32.00;;;;;;6284544;28;20244;-57
2023/04/27 14:39:27;;;;;;;4.00;3.10;;;22.60;33.90;;;;;;6279771;28;20208;-58
2023/04/27 14:42:27;;;;;;;5.80;3.33;;;21.70;35.70;;;;;;6285454;28;20197;-58
2023/04/27 14:45:28;;;;;;;3.23;2.93;;;20.90;37.70;;;;;;6273432;28;20239;-60
2023/04/27 14:48:28;;;;;;;3.90;3.37;;;20.30;36.70;;;;;;6288302;28;20197;-60
2023/04/27 14:51:31;;;;;;;5.03;3.60;;;19.50;36.90;;;;;;6278058;28;20193;-61
2023/04/27 14:54:32;;;;;;;5.40;3.37;;;18.90;39.30;;;;;;6280986;28;20270;-60
2023/04/27 14:57:32;;;;;;;5.77;3.50;;;18.60;38.90;;;;;;6279417;28;20251;-59
2023/04/27 15:00:33;;;;;;;4.10;3.40;;;18.20;37.50;;;;;;6338868;28;20195;-59
2023/04/27 15:03:34;;;;;;;5.27;4.17;;;18.10;38.80;;;;;;6276546;28;20196;-58
2023/04/27 15:06:34;;;;;;;5.70;3.53;;;18.00;39.00;;;;;;6297334;28;20219;-58
2023/04/27 15:09:35;;;;;;;3.93;3.20;;;18.00;39.60;;;;;;6293231;28;20202;-59
2023/04/27 15:12:36;;;;;;;4.30;3.40;;;18.00;40.00;;;;;;6286261;28;20224;-60
2023/04/27 15:15:36;;;;;;;7.77;4.20;;;18.30;39.20;;;;;;6282705;28;20200;-60
2023/04/27 15:18:37;;;;;;;6.43;3.67;;;18.70;37.80;;;;;;6304547;28;20224;-60
2023/04/27 15:21:38;;;;;;;4.30;3.40;;;19.10;38.50;;;;;;6273416;28;20239;-60
2023/04/27 15:24:39;;;;;;;4.57;3.67;;;;;;;;;;6278451;28;20193;-60
2023/04/27 15:27:40;;;;;;;8.20;3.70;;;;;;;;;;6304825;28;20207;-60
2023/04/27 15:30:42;;;;;;;5.87;3.00;;;19.50;38.40;;;;;;6279061;28;20196;-60
2023/04/27 15:33:42;;;;;;;4.70;3.43;;;18.60;39.60;;;;;;6287312;28;20197;-60
2023/04/27 15:36:43;;;;;;;4.60;2.97;;;;;;;;;;6253819;28;20244;-60
2023/04/27 15:39:45;;;;;;;4.70;3.60;;;;;;;;;;6286091;28;20193;-59
2023/04/27 15:42:46;;;;;;;3.70;2.90;;;;;;;;;;6299972;28;20181;-59
2023/04/27 15:45:47;;;;;;;3.93;3.30;;;;;;;;;;6297467;28;20189;-59
2023/04/27 15:48:48;;;;;;;4.03;3.60;;;;;;;;;;6313729;28;20256;-58
2023/04/27 15:51:50;;;;;;;5.80;3.27;;;;;;;;;;6289499;28;20264;-58
2023/04/27 15:54:51;;;;;;;4.17;3.67;;;;;;;;;;6300947;28;20200;-58
2023/04/27 15:57:52;;;;;;;7.77;3.80;;;;;;;;;;6315908;28;20293;-58
2023/04/27 16:00:53;;;;;;;5.23;3.57;;;;;;;;;;6295962;28;20189;-58
2023/04/27 16:03:55;;;;;;;3.83;2.90;;;;;;;;;;6296629;28;20189;-59
2023/04/27 16:06:56;;;;;;;5.23;3.00;;;;;;;;;;6285519;28;20269;-59
2023/04/27 16:09:57;;;;;;;4.83;3.23;;;;;;;;;;6298722;28;20219;-59
2023/04/27 16:12:58;;;;;;;3.80;3.23;;;;;;;;;;6299079;28;20200;-59
2023/04/27 16:16:00;;;;;;;6.70;3.10;;;;;;;;;;6300782;28;20203;-59
2023/04/27 16:19:02;;;;;;;5.93;3.30;;;;;;;;;;6282251;28;20274;-59
2023/04/27 16:22:03;;;;;;;5.73;3.00;;;;;;;;;;6292235;28;20189;-59
2023/04/27 16:25:09;;;;;;;5.90;3.43;;;;;;;;;;6288686;28;20194;-59
2023/04/27 16:28:10;;;;;;;4.73;3.07;;;;;;;;;;6316004;28;20292;-59
2023/04/27 16:31:15;;;;;;;3.50;2.87;;;;;;;;;;6331243;28;20237;-59
2023/04/27 16:34:16;;;;;;;5.97;3.23;;;;;;;;;;6291431;28;20190;-59
2023/04/27 16:37:17;;;;;;;4.17;3.00;;;;;;;;;;6310839;28;20212;-59
2023/04/27 16:40:18;;;;;;;4.83;3.27;;;;;;;;;;6305714;28;20201;-59
2023/04/27 16:43:19;;;;;;;6.30;3.37;;;;;;;;;;6306277;28;20184;-60
2023/04/27 16:46:20;;;;;;;4.73;3.10;;;;;;;;;;6297882;28;20221;-59
2023/04/27 16:49:21;;;;;;;4.00;3.37;;;;;;;;;;6274084;28;20194;-59
2023/04/27 16:52:23;;;;;;;4.03;3.63;;;;;;;;;;6288166;28;20197;-59
2023/04/27 16:55:24;;;;;;;3.67;3.17;;;;;;;;;;6319940;28;20273;-59
2023/04/27 16:58:25;;;;;;;4.53;2.97;;;;;;;;;;6300789;28;20213;-59
2023/04/27 17:01:28;;;;;;;7.03;3.13;;;;;;;;;;6288294;28;20188;-59
2023/04/27 17:04:31;;;;;;;3.97;3.17;;;;;;;;;;6300888;28;20276;-59
2023/04/27 17:07:32;;;;;;;3.63;3.00;;;;;;;;;;6297737;28;20281;-59
2023/04/27 17:10:35;;;;;;;4.57;2.47;;;18.20;41.30;;;;;;6301564;28;20201;-60
2023/04/27 17:13:36;;;;;;;4.23;3.00;;;15.50;50.00;;;;;;6286230;28;20224;-61
2023/04/27 17:16:36;;;;;;;4.33;2.77;;;15.30;51.60;;;;;;6288753;28;20225;-59
2023/04/27 17:19:37;;;;;;;5.63;3.10;;;15.10;53.00;;;;;;6296430;28;20193;-58
2023/04/27 17:22:38;;;;;;;3.63;2.67;;;14.90;53.70;;;;;;6279588;28;20185;-58
2023/04/27 17:25:40;;;;;;;6.33;3.23;;;14.80;54.00;;;;;;6275997;28;20306;-62
2023/04/27 17:28:41;;;;;;;5.77;2.67;;;14.70;53.10;;;;;;6304881;28;20196;-62